Michel Dsr — FLTE — position and weather

sailwx.info

Track history (hours):
 
Tides and Currents Weather Stations Pressure Air Temp Water Temp Dewpoint Dewpoint Depression Visibility Wind Speed Wind Dir Waves Ship Positions

Michel Dsr

Last reported at 2015-Jan-31 19:33 UTC. Time now 2015-Jan-31 21:08 UTC.
Position N 46°37' W 002°07'.

Length 80 m; draft 6 m.

Type: Dredging. MMSI: 228344700.

Date/timePositionNaut miles runAvg speedWind from/ knotsBaromVisibWave heightAir tempDewpointWater temp
2015-Jan-31 19:33N 46°37' W 002°07'10 9.8
2015-Jan-31 18:33N 46°30' W 001°58'10 9.8
2015-Jan-31 17:33N 46°22' W 001°48'10 9.8
2015-Jan-31 16:33N 46°15' W 001°40'10 9.8
2015-Jan-31 15:33N 46°07' W 001°30'  
2015-Jan-28 03:15N 46°05' W 001°35'0 0.1
2015-Jan-28 02:13N 46°05' W 001°35'0 0.0
2015-Jan-28 01:19N 46°05' W 001°35'0 0.0
2015-Jan-28 00:26N 46°05' W 001°35'7 7.9
2015-Jan-27 23:32N 46°06' W 001°25'7 1.4
2015-Jan-27 18:22N 46°05' W 001°35'0 0.1
2015-Jan-27 17:23N 46°05' W 001°35'0 0.3
2015-Jan-27 16:28N 46°05' W 001°34'0 0.0
2015-Jan-27 02:14N 46°05' W 001°35'0 0.1
2015-Jan-27 01:17N 46°05' W 001°35'0 0.3
2015-Jan-27 00:31N 46°05' W 001°35'0 0.2
2015-Jan-26 23:32N 46°05' W 001°35'6 6.0
2015-Jan-26 22:33N 46°05' W 001°26'13 1.1
2015-Jan-26 10:31N 46°13' W 001°41'1011.0
2015-Jan-26 09:33N 46°21' W 001°51'1111.0
2015-Jan-26 08:33N 46°30' W 001°60'1111.1
2015-Jan-26 07:34N 46°39' W 002°09'1111.3
2015-Jan-26 06:33N 46°48' W 002°19'26 3.6
2015-Jan-25 23:28N 47°14' W 002°16'25 1.6
2015-Jan-25 08:26N 47°15' W 002°53'910.1
2015-Jan-25 07:33N 47°20' W 003°04'1111.4
2015-Jan-25 06:33N 47°30' W 003°13'1211.5
2015-Jan-25 05:33N 47°39' W 003°23'5 5.4
2015-Jan-25 04:33N 47°44' W 003°21'0 0.0
2015-Jan-25 03:33N 47°44' W 003°21'0 0.0
2015-Jan-25 02:33N 47°44' W 003°21'0 0.0
2015-Jan-25 01:33N 47°44' W 003°21'0 0.0
2015-Jan-25 00:33N 47°44' W 003°21'0 0.0
2015-Jan-24 23:33N 47°44' W 003°21'0 0.0
2015-Jan-24 22:33N 47°44' W 003°21'0 0.0
2015-Jan-24 21:33N 47°44' W 003°21'0 0.0
2015-Jan-24 20:33N 47°44' W 003°21'0 0.0
2015-Jan-24 19:33N 47°44' W 003°21'0 0.0
2015-Jan-24 18:33N 47°44' W 003°21'0 0.0
2015-Jan-24 17:33N 47°44' W 003°21'0 0.0
2015-Jan-24 16:33N 47°44' W 003°21'0 0.0
2015-Jan-24 15:33N 47°44' W 003°21'0 0.0
2015-Jan-24 14:33N 47°44' W 003°21'0 0.0
2015-Jan-24 13:34N 47°44' W 003°21'0 0.0
2015-Jan-24 12:33N 47°44' W 003°21'0 0.0
2015-Jan-24 11:33N 47°44' W 003°21'0 0.0
2015-Jan-24 10:33N 47°44' W 003°21'0 0.0
2015-Jan-24 09:33N 47°44' W 003°21'0 0.0
2015-Jan-24 08:33N 47°44' W 003°21'1 1.4
2015-Jan-24 07:34N 47°45' W 003°19'0 0.0
2015-Jan-24 06:33N 47°45' W 003°19'0 0.0
2015-Jan-24 05:34N 47°45' W 003°19'6 5.6
2015-Jan-24 04:34N 47°41' W 003°25'8 7.8
2015-Jan-24 03:34N 47°34' W 003°18'9 9.0
2015-Jan-24 02:34N 47°27' W 003°10'7 7.4
2015-Jan-24 01:33N 47°21' W 003°03'8 8.0
2015-Jan-24 00:34N 47°15' W 002°55'10 8.7
2015-Jan-23 23:28N 47°08' W 002°46'36 9.2
2015-Jan-23 19:30N 46°41' W 002°10'9 9.6
2015-Jan-23 18:33N 46°34' W 002°01'10 9.6
2015-Jan-23 17:33N 46°27' W 001°52'7 7.1
2015-Jan-23 16:33N 46°22' W 001°44'0 0.1
2015-Jan-23 15:33N 46°22' W 001°45'0 0.0
2015-Jan-23 14:33N 46°22' W 001°45'4 4.2
2015-Jan-23 13:34N 46°25' W 001°49'1211.8
2015-Jan-23 12:34N 46°34' W 002°00'1211.7
2015-Jan-23 11:33N 46°43' W 002°12'1511.6
2015-Jan-23 10:14N 46°53' W 002°28'29 4.3
2015-Jan-23 03:33N 47°18' W 002°07'0 0.0
2015-Jan-22 19:24N 47°18' W 002°07'0 0.0
2015-Jan-22 18:23N 47°18' W 002°07'0 0.0
2015-Jan-22 14:28N 47°18' W 002°07'  
Track history (hours):
 
Tides and Currents Weather Stations Pressure Air Temp Water Temp Dewpoint Dewpoint Depression Visibility Wind Speed Wind Dir Waves Ship Positions

Michel Dsr

Last reported at 2015-Jan-31 19:33 UTC. Time now 2015-Jan-31 21:08 UTC.
Position N 46°37' W 002°07'.

Length 80 m; draft 6 m.

Type: Dredging. MMSI: 228344700.

Date/timePositionNaut miles runAvg speedWind from/ knotsBaromVisibWave heightAir tempDewpointWater temp
2015-Jan-31 19:33N 46°37' W 002°07'10 9.8
2015-Jan-31 18:33N 46°30' W 001°58'10 9.8
2015-Jan-31 17:33N 46°22' W 001°48'10 9.8
2015-Jan-31 16:33N 46°15' W 001°40'10 9.8
2015-Jan-31 15:33N 46°07' W 001°30'  
2015-Jan-28 03:15N 46°05' W 001°35'0 0.1
2015-Jan-28 02:13N 46°05' W 001°35'0 0.0
2015-Jan-28 01:19N 46°05' W 001°35'0 0.0
2015-Jan-28 00:26N 46°05' W 001°35'7 7.9
2015-Jan-27 23:32N 46°06' W 001°25'7 1.4
2015-Jan-27 18:22N 46°05' W 001°35'0 0.1
2015-Jan-27 17:23N 46°05' W 001°35'0 0.3
2015-Jan-27 16:28N 46°05' W 001°34'0 0.0
2015-Jan-27 02:14N 46°05' W 001°35'0 0.1
2015-Jan-27 01:17N 46°05' W 001°35'0 0.3
2015-Jan-27 00:31N 46°05' W 001°35'0 0.2
2015-Jan-26 23:32N 46°05' W 001°35'6 6.0
2015-Jan-26 22:33N 46°05' W 001°26'13 1.1
2015-Jan-26 10:31N 46°13' W 001°41'1011.0
2015-Jan-26 09:33N 46°21' W 001°51'1111.0
2015-Jan-26 08:33N 46°30' W 001°60'1111.1
2015-Jan-26 07:34N 46°39' W 002°09'1111.3
2015-Jan-26 06:33N 46°48' W 002°19'26 3.6
2015-Jan-25 23:28N 47°14' W 002°16'25 1.6
2015-Jan-25 08:26N 47°15' W 002°53'910.1
2015-Jan-25 07:33N 47°20' W 003°04'1111.4
2015-Jan-25 06:33N 47°30' W 003°13'1211.5
2015-Jan-25 05:33N 47°39' W 003°23'5 5.4
2015-Jan-25 04:33N 47°44' W 003°21'0 0.0
2015-Jan-25 03:33N 47°44' W 003°21'0 0.0
2015-Jan-25 02:33N 47°44' W 003°21'0 0.0
2015-Jan-25 01:33N 47°44' W 003°21'0 0.0
2015-Jan-25 00:33N 47°44' W 003°21'0 0.0
2015-Jan-24 23:33N 47°44' W 003°21'0 0.0
2015-Jan-24 22:33N 47°44' W 003°21'0 0.0
2015-Jan-24 21:33N 47°44' W 003°21'0 0.0
2015-Jan-24 20:33N 47°44' W 003°21'0 0.0
2015-Jan-24 19:33N 47°44' W 003°21'0 0.0
2015-Jan-24 18:33N 47°44' W 003°21'0 0.0
2015-Jan-24 17:33N 47°44' W 003°21'0 0.0
2015-Jan-24 16:33N 47°44' W 003°21'0 0.0
2015-Jan-24 15:33N 47°44' W 003°21'0 0.0
2015-Jan-24 14:33N 47°44' W 003°21'0 0.0
2015-Jan-24 13:34N 47°44' W 003°21'0 0.0
2015-Jan-24 12:33N 47°44' W 003°21'0 0.0
2015-Jan-24 11:33N 47°44' W 003°21'0 0.0
2015-Jan-24 10:33N 47°44' W 003°21'0 0.0
2015-Jan-24 09:33N 47°44' W 003°21'0 0.0
2015-Jan-24 08:33N 47°44' W 003°21'1 1.4
2015-Jan-24 07:34N 47°45' W 003°19'0 0.0
2015-Jan-24 06:33N 47°45' W 003°19'0 0.0
2015-Jan-24 05:34N 47°45' W 003°19'6 5.6
2015-Jan-24 04:34N 47°41' W 003°25'8 7.8
2015-Jan-24 03:34N 47°34' W 003°18'9 9.0
2015-Jan-24 02:34N 47°27' W 003°10'7 7.4
2015-Jan-24 01:33N 47°21' W 003°03'8 8.0
2015-Jan-24 00:34N 47°15' W 002°55'10 8.7
2015-Jan-23 23:28N 47°08' W 002°46'36 9.2
2015-Jan-23 19:30N 46°41' W 002°10'9 9.6
2015-Jan-23 18:33N 46°34' W 002°01'10 9.6
2015-Jan-23 17:33N 46°27' W 001°52'7 7.1
2015-Jan-23 16:33N 46°22' W 001°44'0 0.1
2015-Jan-23 15:33N 46°22' W 001°45'0 0.0
2015-Jan-23 14:33N 46°22' W 001°45'4 4.2
2015-Jan-23 13:34N 46°25' W 001°49'1211.8
2015-Jan-23 12:34N 46°34' W 002°00'1211.7
2015-Jan-23 11:33N 46°43' W 002°12'1511.6
2015-Jan-23 10:14N 46°53' W 002°28'29 4.3
2015-Jan-23 03:33N 47°18' W 002°07'0 0.0
2015-Jan-22 19:24N 47°18' W 002°07'0 0.0
2015-Jan-22 18:23N 47°18' W 002°07'0 0.0
2015-Jan-22 14:28N 47°18' W 002°07'  

Dump ship's entire track history